createdAt,value
2019-02-14T00:00:44.191Z,3.30
2019-02-14T00:03:13.516Z,3.30
2019-02-14T00:05:42.917Z,3.20
2019-02-14T00:08:12.271Z,3.30
2019-02-14T00:10:41.631Z,3.30
2019-02-14T00:13:11.099Z,3.30
2019-02-14T00:15:40.518Z,3.30
2019-02-14T00:18:09.912Z,3.30
2019-02-14T00:20:39.297Z,3.20
2019-02-14T00:23:08.662Z,3.20
2019-02-14T00:25:37.919Z,3.30
2019-02-14T00:28:07.150Z,3.30
2019-02-14T00:30:36.515Z,3.30
2019-02-14T00:33:05.787Z,3.30
2019-02-14T00:35:35.216Z,3.30
2019-02-14T00:38:04.585Z,3.20
2019-02-14T00:40:33.852Z,3.30
2019-02-14T00:43:06.168Z,3.30
2019-02-14T00:45:35.572Z,3.30
2019-02-14T00:48:04.930Z,3.30
2019-02-14T00:50:34.328Z,3.30
2019-02-14T00:53:03.773Z,3.20
2019-02-14T00:55:33.143Z,3.20
2019-02-14T00:58:02.499Z,3.20
2019-02-14T01:00:31.841Z,3.30
2019-02-14T01:03:01.205Z,3.30
2019-02-14T01:05:33.562Z,3.20
2019-02-14T01:08:01.637Z,3.20
2019-02-14T01:10:31.025Z,3.20
2019-02-14T01:13:00.390Z,3.20
2019-02-14T01:15:30.171Z,3.20
2019-02-14T01:17:59.498Z,3.20
2019-02-14T01:20:28.876Z,3.20
2019-02-14T01:22:58.244Z,3.10
2019-02-14T01:25:27.580Z,3.10
2019-02-14T01:27:56.912Z,3.20
2019-02-14T01:30:26.269Z,3.20
2019-02-14T01:32:55.560Z,3.20
2019-02-14T01:35:24.828Z,3.20
2019-02-14T01:37:54.172Z,3.10
2019-02-14T01:40:23.541Z,3.10
2019-02-14T01:42:52.919Z,3.10
2019-02-14T01:45:22.283Z,3.00
2019-02-14T01:47:51.603Z,3.00
2019-02-14T01:50:20.958Z,3.00
2019-02-14T01:52:50.309Z,2.90
2019-02-14T01:55:19.694Z,2.90
2019-02-14T01:57:48.957Z,3.00
2019-02-14T02:00:18.332Z,3.00
2019-02-14T02:02:47.717Z,3.00
2019-02-14T02:05:17.089Z,3.00
2019-02-14T02:07:46.497Z,3.00
2019-02-14T02:10:16.026Z,3.10
2019-02-14T02:12:45.384Z,3.10
2019-02-14T02:15:15.001Z,3.10
2019-02-14T02:17:44.384Z,3.10
2019-02-14T02:20:13.786Z,3.10
2019-02-14T02:22:43.113Z,3.20
2019-02-14T02:25:12.619Z,3.20
2019-02-14T02:27:41.978Z,3.20
2019-02-14T02:30:13.156Z,3.20
2019-02-14T02:32:42.542Z,3.20
2019-02-14T02:35:11.954Z,3.20
2019-02-14T02:37:41.344Z,3.20
2019-02-14T02:40:10.733Z,3.30
2019-02-14T02:42:40.140Z,3.30
2019-02-14T02:45:11.225Z,3.30
2019-02-14T02:47:40.612Z,3.30
2019-02-14T02:50:11.701Z,3.30
2019-02-14T02:52:41.065Z,3.20
2019-02-14T02:55:10.634Z,3.20
2019-02-14T02:57:39.934Z,3.20
2019-02-14T03:00:12.710Z,3.20
2019-02-14T03:02:41.980Z,3.20
2019-02-14T03:05:12.619Z,3.20
2019-02-14T03:07:41.993Z,3.10
2019-02-14T03:10:12.050Z,3.10
2019-02-14T03:12:41.345Z,3.20
2019-02-14T03:15:11.851Z,3.20
2019-02-14T03:17:41.179Z,3.20
2019-02-14T03:20:11.305Z,3.10
2019-02-14T03:22:40.606Z,3.10
2019-02-14T03:25:13.075Z,3.10
2019-02-14T03:27:42.311Z,3.10
2019-02-14T03:30:12.500Z,3.20
2019-02-14T03:32:41.858Z,3.20
2019-02-14T03:35:11.462Z,3.20
2019-02-14T03:37:40.832Z,3.20
2019-02-14T03:40:11.063Z,3.20
2019-02-14T03:42:40.362Z,3.10
2019-02-14T03:45:12.826Z,3.10
2019-02-14T03:47:42.238Z,3.10
2019-02-14T03:50:11.811Z,3.10
2019-02-14T03:52:41.200Z,3.10
2019-02-14T03:55:10.667Z,3.00
2019-02-14T03:57:40.050Z,3.00
2019-02-14T04:00:12.132Z,3.00
2019-02-14T04:02:41.528Z,3.00
2019-02-14T04:05:10.994Z,3.00
2019-02-14T04:07:40.411Z,2.90
2019-02-14T04:10:11.091Z,2.90
2019-02-14T04:12:40.439Z,2.90
2019-02-14T04:15:11.842Z,2.90
2019-02-14T04:17:41.124Z,2.90
2019-02-14T04:20:10.542Z,2.90
2019-02-14T04:22:39.919Z,2.80
2019-02-14T04:25:09.510Z,2.90
2019-02-14T04:27:38.835Z,2.90
2019-02-14T04:30:09.416Z,2.80
2019-02-14T04:32:38.794Z,2.80
2019-02-14T04:35:08.204Z,2.80
2019-02-14T04:37:37.576Z,2.80
2019-02-14T04:40:08.598Z,2.80
2019-02-14T04:42:37.947Z,2.80
2019-02-14T04:45:07.608Z,2.80
2019-02-14T04:47:36.955Z,2.70
2019-02-14T04:50:06.743Z,2.70
2019-02-14T04:52:36.119Z,2.70
2019-02-14T04:55:05.950Z,2.70
2019-02-14T04:57:35.288Z,2.70
2019-02-14T05:00:05.261Z,2.70
2019-02-14T05:02:34.568Z,2.70
2019-02-14T05:05:03.941Z,2.70
2019-02-14T05:07:33.322Z,2.70
2019-02-14T05:10:02.664Z,2.70
2019-02-14T05:12:32.049Z,2.70
2019-02-14T05:15:01.338Z,2.60
2019-02-14T05:17:30.670Z,2.60
2019-02-14T05:20:00.070Z,2.50
2019-02-14T05:22:29.516Z,2.50
2019-02-14T05:24:58.897Z,2.50
2019-02-14T05:27:28.278Z,2.40
2019-02-14T05:29:57.586Z,2.50
2019-02-14T05:32:27.003Z,2.40
2019-02-14T05:34:56.340Z,2.30
2019-02-14T05:37:25.649Z,2.30
2019-02-14T05:39:54.987Z,2.20
2019-02-14T05:42:25.166Z,2.20
2019-02-14T05:44:54.705Z,2.10
2019-02-14T05:47:24.047Z,2.10
2019-02-14T05:49:53.454Z,2.00
2019-02-14T05:52:22.862Z,2.00
2019-02-14T05:54:52.216Z,1.90
2019-02-14T05:57:21.634Z,1.90
2019-02-14T05:59:50.974Z,1.90
2019-02-14T06:02:20.346Z,1.80
2019-02-14T06:04:49.709Z,1.80
2019-02-14T06:07:19.002Z,1.80
2019-02-14T06:09:48.324Z,1.70
2019-02-14T06:12:17.725Z,1.70
2019-02-14T06:14:47.100Z,1.70
2019-02-14T06:17:16.487Z,1.60
2019-02-14T06:19:46.203Z,1.60
2019-02-14T06:22:15.578Z,1.50
2019-02-14T06:24:44.884Z,1.50
2019-02-14T06:27:14.237Z,1.50
2019-02-14T06:29:43.656Z,1.50
2019-02-14T06:32:13.023Z,1.50
2019-02-14T06:34:42.404Z,1.40
2019-02-14T06:37:11.792Z,1.40
2019-02-14T06:39:41.169Z,1.40
2019-02-14T06:42:10.562Z,1.40
2019-02-14T06:44:39.954Z,1.40
2019-02-14T06:47:09.358Z,1.40
2019-02-14T06:49:38.696Z,1.40
2019-02-14T06:52:08.070Z,1.30
2019-02-14T06:54:37.431Z,1.30
2019-02-14T06:57:06.782Z,1.40
2019-02-14T06:59:36.165Z,1.40
2019-02-14T07:02:05.541Z,1.40
2019-02-14T07:04:34.907Z,1.40
2019-02-14T07:07:04.199Z,1.40
2019-02-14T07:09:33.588Z,1.40
2019-02-14T07:12:02.865Z,1.40
2019-02-14T07:14:32.277Z,1.40
2019-02-14T07:17:01.651Z,1.40
2019-02-14T07:19:31.051Z,1.40
2019-02-14T07:22:00.336Z,1.40
2019-02-14T07:24:29.643Z,1.40
2019-02-14T07:26:59.006Z,1.40
2019-02-14T07:29:28.359Z,1.40
2019-02-14T07:31:57.712Z,1.50
2019-02-14T07:34:27.113Z,1.50
2019-02-14T07:36:56.470Z,1.50
2019-02-14T07:39:25.766Z,1.50
2019-02-14T07:41:55.200Z,1.50
2019-02-14T07:44:24.542Z,1.50
2019-02-14T07:46:53.954Z,1.50
2019-02-14T07:49:23.298Z,1.50
2019-02-14T07:51:52.590Z,1.60
2019-02-14T07:54:21.994Z,1.60
2019-02-14T07:56:52.561Z,1.60
2019-02-14T07:59:21.979Z,1.70
2019-02-14T08:01:51.349Z,1.80
2019-02-14T08:04:20.718Z,1.80
2019-02-14T08:06:50.021Z,1.80
2019-02-14T08:09:19.410Z,1.80
2019-02-14T08:11:48.830Z,1.90
2019-02-14T08:14:18.270Z,2.00
2019-02-14T08:16:47.526Z,2.10
2019-02-14T08:19:16.909Z,2.20
2019-02-14T08:21:46.282Z,2.30
2019-02-14T08:24:15.684Z,2.40
2019-02-14T08:26:44.976Z,2.50
2019-02-14T08:29:14.344Z,2.60
2019-02-14T08:31:43.711Z,2.70
2019-02-14T08:34:13.119Z,2.80
2019-02-14T08:36:42.499Z,2.90
2019-02-14T08:39:11.857Z,2.90
2019-02-14T08:41:41.272Z,3.00
2019-02-14T08:44:10.619Z,3.00
2019-02-14T08:46:39.987Z,3.10
2019-02-14T08:49:09.379Z,3.10
2019-02-14T08:51:38.756Z,3.20
2019-02-14T08:54:07.968Z,3.30
2019-02-14T08:56:37.322Z,3.30
2019-02-14T08:59:06.735Z,3.40
2019-02-14T09:01:36.092Z,3.50
2019-02-14T09:04:05.462Z,3.60
2019-02-14T09:06:34.840Z,3.60
2019-02-14T09:09:05.477Z,3.70
2019-02-14T09:11:34.804Z,3.80
2019-02-14T09:14:04.112Z,3.90
2019-02-14T09:16:33.332Z,4.00
2019-02-14T09:19:02.663Z,4.10
2019-02-14T09:21:32.064Z,4.10
2019-02-14T09:24:01.416Z,4.20
2019-02-14T09:26:30.802Z,4.30
2019-02-14T09:29:00.187Z,4.40
2019-02-14T09:31:29.579Z,4.50
2019-02-14T09:33:58.965Z,4.60
2019-02-14T09:36:28.312Z,4.70
2019-02-14T09:38:57.710Z,4.80
2019-02-14T09:41:26.984Z,4.90
2019-02-14T09:43:56.274Z,5.10
2019-02-14T09:46:25.680Z,5.20
2019-02-14T09:48:55.065Z,5.30
2019-02-14T09:51:24.420Z,5.50
2019-02-14T09:53:53.733Z,5.60
2019-02-14T09:56:23.052Z,5.70
2019-02-14T09:58:52.466Z,5.80
2019-02-14T10:01:21.871Z,6.00
2019-02-14T10:03:51.221Z,6.10
2019-02-14T10:06:20.566Z,6.20
2019-02-14T10:08:49.907Z,6.30
2019-02-14T10:11:19.307Z,6.30
2019-02-14T10:13:48.692Z,6.40
2019-02-14T10:16:18.035Z,6.50
2019-02-14T10:18:47.423Z,6.60
2019-02-14T10:21:16.813Z,6.80
2019-02-14T10:23:46.169Z,6.90
2019-02-14T10:26:15.541Z,7.00
2019-02-14T10:28:44.894Z,7.10
2019-02-14T10:31:14.274Z,7.20
2019-02-14T10:33:43.667Z,7.40
2019-02-14T10:36:13.028Z,7.50
2019-02-14T10:38:42.353Z,7.70
2019-02-14T10:41:11.674Z,7.80
2019-02-14T10:43:48.703Z,8.00
2019-02-14T10:46:12.045Z,8.10
2019-02-14T10:48:41.404Z,8.20
2019-02-14T10:51:10.811Z,8.20
2019-02-14T10:53:40.144Z,8.10
2019-02-14T10:56:09.581Z,8.10
2019-02-14T10:58:38.860Z,8.10
2019-02-14T11:01:08.230Z,8.00
2019-02-14T11:03:37.599Z,8.00
2019-02-14T11:06:06.959Z,8.10
2019-02-14T11:08:36.345Z,8.20
2019-02-14T11:11:05.725Z,8.30
2019-02-14T11:13:35.088Z,8.50
2019-02-14T11:16:05.666Z,8.70
2019-02-14T11:18:43.739Z,8.70
2019-02-14T11:21:05.994Z,8.80
2019-02-14T11:23:35.401Z,9.00
2019-02-14T11:26:04.702Z,9.20
2019-02-14T11:28:34.108Z,9.30
2019-02-14T11:31:03.400Z,9.60
2019-02-14T11:33:32.768Z,9.70
2019-02-14T11:36:02.066Z,9.90
2019-02-14T11:38:40.213Z,10.10
2019-02-14T11:41:02.503Z,10.20
2019-02-14T11:43:31.856Z,10.20
2019-02-14T11:46:01.222Z,10.20
2019-02-14T11:48:30.637Z,10.30
2019-02-14T11:51:00.003Z,10.40
2019-02-14T11:53:29.515Z,10.50
2019-02-14T11:55:58.827Z,10.70
2019-02-14T11:58:28.204Z,10.90
2019-02-14T12:00:57.535Z,10.90
2019-02-14T12:03:26.918Z,11.10
2019-02-14T12:05:56.248Z,11.30
2019-02-14T12:08:25.652Z,11.40
2019-02-14T12:10:54.946Z,11.50
2019-02-14T12:13:24.332Z,11.50
2019-02-14T12:15:53.655Z,11.50
2019-02-14T12:18:24.150Z,11.60
2019-02-14T12:20:53.646Z,11.70
2019-02-14T12:23:23.006Z,11.70
2019-02-14T12:25:52.379Z,11.90
2019-02-14T12:28:22.291Z,11.90
2019-02-14T12:30:51.653Z,12.00
2019-02-14T12:33:21.009Z,12.10
2019-02-14T12:35:50.379Z,12.20
2019-02-14T12:38:19.787Z,12.20
2019-02-14T12:40:49.164Z,12.30
2019-02-14T12:43:18.590Z,12.40
2019-02-14T12:45:47.934Z,12.50
2019-02-14T12:48:17.310Z,12.60
2019-02-14T12:50:46.683Z,12.70
2019-02-14T12:53:16.046Z,12.80
2019-02-14T12:55:45.401Z,13.00
2019-02-14T12:58:14.779Z,13.10
2019-02-14T13:00:44.195Z,13.20
2019-02-14T13:03:13.584Z,13.30
2019-02-14T13:05:42.938Z,13.30
2019-02-14T13:08:12.261Z,13.40
2019-02-14T13:10:41.635Z,13.50
2019-02-14T13:13:11.011Z,13.60
2019-02-14T13:15:40.369Z,13.80
2019-02-14T13:18:09.727Z,13.90
2019-02-14T13:20:39.143Z,13.90
2019-02-14T13:23:08.441Z,14.00
2019-02-14T13:25:37.733Z,14.10
2019-02-14T13:28:07.092Z,14.30
2019-02-14T13:30:36.482Z,14.40
2019-02-14T13:33:05.858Z,14.40
2019-02-14T13:35:35.181Z,14.50
2019-02-14T13:38:04.565Z,14.70
2019-02-14T13:40:33.932Z,14.80
2019-02-14T13:43:03.219Z,14.90
2019-02-14T13:45:34.212Z,14.80
2019-02-14T13:48:03.596Z,14.90
2019-02-14T13:50:32.907Z,15.10
2019-02-14T13:53:02.199Z,15.10
2019-02-14T13:55:31.593Z,15.20
2019-02-14T13:58:00.993Z,15.40
2019-02-14T14:00:30.412Z,15.40
2019-02-14T14:02:59.773Z,15.50
2019-02-14T14:05:29.159Z,15.70
2019-02-14T14:07:58.523Z,15.60
2019-02-14T14:10:27.948Z,15.40
2019-02-14T14:12:57.352Z,15.30
2019-02-14T14:15:26.792Z,15.10
2019-02-14T14:17:56.198Z,14.80
2019-02-14T14:20:25.601Z,14.60
2019-02-14T14:22:54.994Z,14.40
2019-02-14T14:25:24.386Z,14.30
2019-02-14T14:27:53.706Z,14.00
2019-02-14T14:30:23.092Z,13.90
2019-02-14T14:32:52.457Z,13.80
2019-02-14T14:35:21.857Z,13.90
2019-02-14T14:37:51.201Z,14.10
2019-02-14T14:40:20.645Z,14.40
2019-02-14T14:43:09.012Z,14.60
2019-02-14T14:45:57.851Z,14.80
2019-02-14T14:48:30.628Z,14.80
2019-02-14T14:50:59.997Z,14.90
2019-02-14T14:53:29.305Z,14.90
2019-02-14T14:55:58.579Z,15.00
2019-02-14T14:58:27.911Z,15.10
2019-02-14T15:00:57.299Z,15.10
2019-02-14T15:03:26.610Z,15.30
2019-02-14T15:05:56.122Z,15.50
2019-02-14T15:08:25.412Z,15.60
2019-02-14T15:10:54.766Z,15.70
2019-02-14T15:13:24.068Z,15.60
2019-02-14T15:15:53.399Z,15.50
2019-02-14T15:18:22.797Z,15.60
2019-02-14T15:20:52.179Z,15.70
2019-02-14T15:23:21.631Z,15.60
2019-02-14T15:25:51.055Z,15.50
2019-02-14T15:28:20.497Z,15.50
2019-02-14T15:30:49.876Z,15.40
2019-02-14T15:33:19.209Z,15.30
2019-02-14T15:35:48.502Z,15.00
2019-02-14T15:38:17.869Z,14.80
2019-02-14T15:40:47.182Z,14.70
2019-02-14T15:43:16.498Z,14.60
2019-02-14T15:45:45.796Z,14.60
2019-02-14T15:48:15.074Z,14.40
2019-02-14T15:50:44.320Z,14.20
2019-02-14T15:53:13.713Z,14.10
2019-02-14T15:55:43.782Z,13.90
2019-02-14T15:58:13.345Z,13.80
2019-02-14T16:00:42.701Z,13.60
2019-02-14T16:03:12.053Z,13.40
2019-02-14T16:05:42.694Z,13.20
2019-02-14T16:08:12.238Z,13.00
2019-02-14T16:10:41.555Z,12.90
2019-02-14T16:13:10.835Z,12.80
2019-02-14T16:15:40.229Z,12.70
2019-02-14T16:18:09.597Z,12.50
2019-02-14T16:20:40.381Z,12.30
2019-02-14T16:23:10.007Z,12.10
2019-02-14T16:25:39.396Z,11.90
2019-02-14T16:28:09.877Z,11.80
2019-02-14T16:30:39.968Z,11.70
2019-02-14T16:33:09.336Z,11.50
2019-02-14T16:35:38.647Z,11.40
2019-02-14T16:38:10.122Z,11.20
2019-02-14T16:40:39.016Z,11.00
2019-02-14T16:43:08.388Z,10.90
2019-02-14T16:45:37.720Z,10.70
2019-02-14T16:48:07.007Z,10.50
2019-02-14T16:50:36.399Z,10.30
2019-02-14T16:53:05.708Z,10.10
2019-02-14T16:55:34.963Z,9.90
2019-02-14T16:58:04.345Z,9.80
2019-02-14T17:00:33.719Z,9.60
2019-02-14T17:03:02.985Z,9.50
2019-02-14T17:05:32.336Z,9.40
2019-02-14T17:08:01.756Z,9.20
2019-02-14T17:10:36.953Z,9.00
2019-02-14T17:13:02.148Z,8.90
2019-02-14T17:15:31.491Z,8.70
2019-02-14T17:18:00.882Z,8.60
2019-02-14T17:20:30.248Z,8.50
2019-02-14T17:22:59.644Z,8.40
2019-02-14T17:25:29.092Z,8.30
2019-02-14T17:27:58.441Z,8.10
2019-02-14T17:30:27.791Z,8.00
2019-02-14T17:32:57.071Z,7.90
2019-02-14T17:35:26.434Z,7.80
2019-02-14T17:37:55.762Z,7.80
2019-02-14T17:40:25.123Z,7.60
2019-02-14T17:42:54.445Z,7.50
2019-02-14T17:45:23.777Z,7.50
2019-02-14T17:47:53.065Z,7.40
2019-02-14T17:50:22.408Z,7.40
2019-02-14T17:52:51.793Z,7.30
2019-02-14T17:55:21.113Z,7.30
2019-02-14T17:57:50.357Z,7.20
2019-02-14T18:00:19.759Z,7.20
2019-02-14T18:02:49.100Z,7.10
2019-02-14T18:05:18.462Z,7.10
2019-02-14T18:07:47.824Z,7.00
2019-02-14T18:10:17.195Z,7.00
2019-02-14T18:12:46.595Z,6.90
2019-02-14T18:15:15.923Z,6.90
2019-02-14T18:17:45.218Z,6.90
2019-02-14T18:20:14.589Z,6.80
2019-02-14T18:22:43.819Z,6.80
2019-02-14T18:25:13.171Z,6.80
2019-02-14T18:27:42.571Z,6.80
2019-02-14T18:30:11.937Z,6.80
2019-02-14T18:32:41.280Z,6.80
2019-02-14T18:35:10.746Z,6.80
2019-02-14T18:37:40.099Z,6.80
2019-02-14T18:40:09.822Z,6.80
2019-02-14T18:42:39.965Z,6.70
2019-02-14T18:45:11.598Z,6.70
2019-02-14T18:47:40.986Z,6.60
2019-02-14T18:50:11.040Z,6.60
2019-02-14T18:52:40.453Z,6.50
2019-02-14T18:55:09.892Z,6.50
2019-02-14T18:57:39.275Z,6.50
2019-02-14T19:00:11.865Z,6.40
2019-02-14T19:02:41.213Z,6.40
2019-02-14T19:05:11.307Z,6.40
2019-02-14T19:07:40.642Z,6.30
2019-02-14T19:10:11.291Z,6.30
2019-02-14T19:12:40.717Z,6.20
2019-02-14T19:15:10.798Z,6.10
2019-02-14T19:17:40.166Z,6.10
2019-02-14T19:20:09.819Z,6.00
2019-02-14T19:22:40.141Z,6.00
2019-02-14T19:25:09.662Z,5.90
2019-02-14T19:27:38.976Z,5.90
2019-02-14T19:30:09.016Z,5.80
2019-02-14T19:32:38.289Z,5.80
2019-02-14T19:35:08.618Z,5.70
2019-02-14T19:37:37.998Z,5.60
2019-02-14T19:40:07.845Z,5.60
2019-02-14T19:42:37.234Z,5.60
2019-02-14T19:45:07.178Z,5.50
2019-02-14T19:47:36.485Z,5.40
2019-02-14T19:50:06.631Z,5.40
2019-02-14T19:52:35.985Z,5.30
2019-02-14T19:55:05.507Z,5.30
2019-02-14T19:57:34.782Z,5.20
2019-02-14T20:00:04.162Z,5.20
2019-02-14T20:02:33.537Z,5.10
2019-02-14T20:05:03.196Z,5.10
2019-02-14T20:07:32.519Z,5.10
2019-02-14T20:10:01.910Z,5.00
2019-02-14T20:12:31.283Z,5.00
2019-02-14T20:15:00.573Z,5.00
2019-02-14T20:17:29.958Z,4.90
2019-02-14T20:19:59.252Z,4.80
2019-02-14T20:22:28.538Z,4.80
2019-02-14T20:24:57.919Z,4.70
2019-02-14T20:27:27.230Z,4.70
2019-02-14T20:29:56.589Z,4.70
2019-02-14T20:32:25.973Z,4.60
2019-02-14T20:34:55.248Z,4.60
2019-02-14T20:37:24.619Z,4.60
2019-02-14T20:39:53.958Z,4.60
2019-02-14T20:42:23.220Z,4.60
2019-02-14T20:44:52.591Z,4.60
2019-02-14T20:47:21.952Z,4.60
2019-02-14T20:49:51.305Z,4.70
2019-02-14T20:52:20.579Z,4.80
2019-02-14T20:54:49.906Z,4.90
2019-02-14T20:57:19.295Z,5.10
2019-02-14T20:59:48.564Z,5.20
2019-02-14T21:02:17.921Z,5.50
2019-02-14T21:04:47.286Z,5.60
2019-02-14T21:07:16.606Z,5.90
2019-02-14T21:09:45.828Z,6.00
2019-02-14T21:12:15.070Z,6.20
2019-02-14T21:14:44.358Z,6.20
2019-02-14T21:17:13.552Z,6.30
2019-02-14T21:19:42.981Z,6.30
2019-02-14T21:22:18.270Z,6.40
2019-02-14T21:24:43.267Z,6.50
2019-02-14T21:27:12.662Z,6.60
2019-02-14T21:29:42.070Z,6.70
2019-02-14T21:32:11.459Z,6.80
2019-02-14T21:34:40.818Z,7.00
2019-02-14T21:37:10.099Z,7.00
2019-02-14T21:39:39.407Z,7.10
2019-02-14T21:42:19.413Z,7.20
2019-02-14T21:44:39.784Z,7.30
2019-02-14T21:47:09.158Z,7.40
2019-02-14T21:49:38.590Z,7.50
2019-02-14T21:52:07.949Z,7.50
2019-02-14T21:54:37.269Z,7.50
2019-02-14T21:57:06.516Z,7.50
2019-02-14T21:59:35.899Z,7.60
2019-02-14T22:02:06.703Z,7.60
2019-02-14T22:04:36.264Z,7.60
2019-02-14T22:07:05.764Z,7.70
2019-02-14T22:09:35.234Z,7.70
2019-02-14T22:12:04.646Z,7.70
2019-02-14T22:14:33.994Z,7.70
2019-02-14T22:17:03.401Z,7.70
2019-02-14T22:19:32.790Z,7.70
2019-02-14T22:22:02.141Z,7.70
2019-02-14T22:24:32.155Z,7.60
2019-02-14T22:27:01.431Z,7.60
2019-02-14T22:29:30.804Z,7.60
2019-02-14T22:32:00.082Z,7.50
2019-02-14T22:34:29.448Z,7.50
2019-02-14T22:36:58.803Z,7.40
2019-02-14T22:39:28.117Z,7.40
2019-02-14T22:41:57.467Z,7.40
2019-02-14T22:44:26.776Z,7.30
2019-02-14T22:46:56.097Z,7.30
2019-02-14T22:49:25.439Z,7.30
2019-02-14T22:51:54.733Z,7.30
2019-02-14T22:54:43.220Z,7.20
2019-02-14T22:57:12.555Z,7.20
2019-02-14T22:59:41.915Z,7.10
2019-02-14T23:02:11.289Z,7.10
2019-02-14T23:04:40.855Z,7.10
2019-02-14T23:07:29.269Z,7.00
2019-02-14T23:09:58.768Z,7.00
2019-02-14T23:12:28.080Z,7.00
2019-02-14T23:14:57.371Z,6.90
2019-02-14T23:17:26.728Z,6.90
2019-02-14T23:19:56.034Z,6.80
2019-02-14T23:22:25.426Z,6.80
2019-02-14T23:24:54.694Z,6.70
2019-02-14T23:27:23.939Z,6.70
2019-02-14T23:29:53.342Z,6.70
2019-02-14T23:32:22.725Z,6.60
2019-02-14T23:34:51.975Z,6.60
2019-02-14T23:37:21.326Z,6.50
2019-02-14T23:39:50.712Z,6.40
2019-02-14T23:42:20.067Z,6.40
2019-02-14T23:44:49.300Z,6.40
2019-02-14T23:47:18.637Z,6.30
2019-02-14T23:49:47.979Z,6.30
2019-02-14T23:52:17.302Z,6.20
2019-02-14T23:54:46.878Z,6.20
2019-02-14T23:57:16.224Z,6.10
2019-02-14T23:59:45.492Z,6.10
